createdAt,value
2023-02-27T00:00:59.169Z,20.42
2023-02-27T00:03:30.360Z,19.90
2023-02-27T00:05:58.705Z,23.83
2023-02-27T00:08:27.116Z,21.88
2023-02-27T00:10:55.364Z,19.70
2023-02-27T00:13:23.201Z,17.60
2023-02-27T00:15:52.130Z,22.83
2023-02-27T00:18:20.049Z,22.95
2023-02-27T00:20:51.190Z,26.00
2023-02-27T00:23:19.348Z,23.08
2023-02-27T00:25:47.604Z,23.10
2023-02-27T00:28:15.757Z,22.98
2023-02-27T00:30:44.221Z,28.75
2023-02-27T00:33:12.311Z,25.02
2023-02-27T00:35:42.536Z,22.80
2023-02-27T00:38:11.533Z,23.45
2023-02-27T00:40:39.865Z,21.05
2023-02-27T00:43:07.731Z,21.27
2023-02-27T00:45:36.202Z,19.38
2023-02-27T00:48:04.182Z,19.33
2023-02-27T00:50:32.496Z,18.13
2023-02-27T00:53:00.618Z,19.08
2023-02-27T00:55:28.779Z,21.52
2023-02-27T00:57:56.743Z,18.98
2023-02-27T01:00:26.493Z,16.63
2023-02-27T01:02:55.173Z,20.05
2023-02-27T01:05:26.133Z,16.10
2023-02-27T01:07:54.784Z,18.95
2023-02-27T01:10:23.561Z,18.00
2023-02-27T01:12:51.926Z,18.73
2023-02-27T01:15:19.954Z,20.17
2023-02-27T01:17:49.613Z,20.58
2023-02-27T01:20:18.361Z,17.17
2023-02-27T01:22:46.932Z,21.45
2023-02-27T01:25:15.004Z,21.27
2023-02-27T01:27:45.815Z,22.08
2023-02-27T01:30:18.306Z,18.25
2023-02-27T01:32:47.120Z,21.73
2023-02-27T01:35:15.201Z,21.63
2023-02-27T01:37:43.367Z,19.92
2023-02-27T01:40:13.470Z,23.90
2023-02-27T01:42:42.560Z,19.70
2023-02-27T01:45:26.858Z,21.80
2023-02-27T01:48:20.260Z,19.20
2023-02-27T01:50:55.313Z,21.00
2023-02-27T01:53:26.941Z,18.48
2023-02-27T01:56:06.455Z,20.58
2023-02-27T01:58:35.161Z,19.00
2023-02-27T02:01:03.815Z,20.35
2023-02-27T02:03:51.069Z,26.77
2023-02-27T02:06:20.465Z,18.55
2023-02-27T02:08:54.025Z,18.58
2023-02-27T02:11:25.735Z,21.42
2023-02-27T02:14:02.939Z,19.25
2023-02-27T02:16:42.851Z,19.48
2023-02-27T02:19:26.492Z,23.63
2023-02-27T02:22:05.092Z,19.05
2023-02-27T02:24:42.429Z,17.85
2023-02-27T02:27:23.038Z,22.70
2023-02-27T02:30:10.112Z,19.38
2023-02-27T02:33:09.450Z,19.50
2023-02-27T02:36:19.297Z,18.40
2023-02-27T02:39:08.734Z,20.90
2023-02-27T02:42:00.954Z,24.02
2023-02-27T02:44:31.433Z,20.27
2023-02-27T02:47:12.277Z,20.75
2023-02-27T02:49:57.558Z,19.15
2023-02-27T02:53:20.313Z,23.55
2023-02-27T02:55:52.977Z,20.98
2023-02-27T02:58:38.460Z,22.58
2023-02-27T03:01:15.652Z,19.58
2023-02-27T03:03:56.704Z,24.67
2023-02-27T03:06:31.185Z,17.88
2023-02-27T03:09:06.482Z,20.07
2023-02-27T03:11:39.591Z,20.00
2023-02-27T03:14:15.727Z,22.40
2023-02-27T03:16:50.734Z,18.83
2023-02-27T03:19:29.313Z,20.52
2023-02-27T03:22:07.886Z,20.58
2023-02-27T03:24:53.872Z,22.23
2023-02-27T03:27:25.957Z,26.15
2023-02-27T03:30:05.366Z,18.92
2023-02-27T03:32:53.623Z,22.25
2023-02-27T03:35:23.491Z,20.45
2023-02-27T03:38:14.151Z,23.58
2023-02-27T03:40:54.950Z,21.92
2023-02-27T03:43:52.197Z,24.35
2023-02-27T03:46:28.239Z,23.88
2023-02-27T03:48:56.234Z,23.60
2023-02-27T03:51:28.260Z,22.33
2023-02-27T03:54:11.862Z,25.05
2023-02-27T03:57:01.773Z,23.60
2023-02-27T03:59:31.268Z,22.33
2023-02-27T04:02:02.582Z,28.27
2023-02-27T04:04:33.159Z,24.25
2023-02-27T04:07:24.738Z,24.95
2023-02-27T04:10:14.601Z,22.25
2023-02-27T04:13:07.731Z,26.50
2023-02-27T04:16:03.558Z,24.38
2023-02-27T04:18:44.244Z,20.88
2023-02-27T04:21:17.651Z,19.02
2023-02-27T04:24:04.086Z,23.90
2023-02-27T04:26:48.763Z,25.27
2023-02-27T04:29:32.677Z,25.88
2023-02-27T04:32:07.421Z,25.23
2023-02-27T04:34:45.796Z,26.75
2023-02-27T04:37:24.181Z,26.08
2023-02-27T04:40:10.917Z,27.77
2023-02-27T04:42:43.760Z,29.80
2023-02-27T04:45:15.672Z,29.23
2023-02-27T04:48:00.742Z,24.98
2023-02-27T04:50:45.285Z,29.15
2023-02-27T04:53:35.124Z,24.85
2023-02-27T04:56:08.987Z,25.35
2023-02-27T04:58:53.202Z,27.60
2023-02-27T05:01:32.001Z,28.17
2023-02-27T05:04:02.054Z,28.90
2023-02-27T05:06:35.159Z,25.20
2023-02-27T05:09:32.122Z,28.33
2023-02-27T05:12:02.783Z,24.25
2023-02-27T05:14:47.885Z,27.88
2023-02-27T05:17:24.087Z,27.05
2023-02-27T05:19:52.626Z,28.38
2023-02-27T05:22:40.780Z,33.88
2023-02-27T05:25:11.795Z,27.27
2023-02-27T05:28:26.587Z,26.48
2023-02-27T05:31:05.442Z,31.88
2023-02-27T05:33:48.267Z,33.60
2023-02-27T05:36:19.881Z,31.58
2023-02-27T05:38:56.559Z,29.55
2023-02-27T05:41:44.504Z,33.08
2023-02-27T05:44:28.379Z,35.40
2023-02-27T05:47:12.096Z,27.58
2023-02-27T05:49:43.126Z,34.58
2023-02-27T05:52:15.015Z,31.00
2023-02-27T05:54:53.450Z,27.65
2023-02-27T05:57:29.514Z,31.38
2023-02-27T06:00:13.733Z,26.77
2023-02-27T06:02:43.759Z,30.13
2023-02-27T06:05:18.967Z,30.83
2023-02-27T06:07:47.517Z,27.88
2023-02-27T06:10:17.969Z,28.75
2023-02-27T06:12:46.097Z,27.98
2023-02-27T06:15:14.491Z,26.52
2023-02-27T06:17:42.438Z,26.90
2023-02-27T06:20:11.747Z,28.35
2023-02-27T06:22:40.234Z,25.60
2023-02-27T06:25:09.046Z,26.05
2023-02-27T06:27:36.889Z,29.90
2023-02-27T06:30:07.818Z,29.35
2023-02-27T06:32:35.879Z,24.00
2023-02-27T06:35:04.610Z,30.65
2023-02-27T06:37:33.241Z,29.73
2023-02-27T06:40:01.652Z,30.52
2023-02-27T06:42:31.128Z,33.03
2023-02-27T06:44:59.451Z,26.50
2023-02-27T06:47:28.997Z,30.70
2023-02-27T06:49:58.134Z,28.33
2023-02-27T06:52:26.161Z,26.00
2023-02-27T06:54:54.358Z,24.88
2023-02-27T06:57:22.290Z,23.85
2023-02-27T06:59:50.804Z,24.95
2023-02-27T07:02:18.692Z,23.45
2023-02-27T07:04:46.942Z,27.05
2023-02-27T07:07:33.172Z,21.13
2023-02-27T07:10:07.242Z,20.52
2023-02-27T07:12:36.727Z,21.88
2023-02-27T07:15:06.059Z,18.55
2023-02-27T07:17:34.109Z,16.58
2023-02-27T07:20:02.379Z,23.00
2023-02-27T07:22:30.573Z,22.42
2023-02-27T07:24:58.841Z,19.55
2023-02-27T07:27:26.985Z,23.10
2023-02-27T07:29:55.187Z,21.75
2023-02-27T07:32:23.143Z,22.73
2023-02-27T07:34:51.756Z,21.60
2023-02-27T07:37:20.051Z,21.67
2023-02-27T07:39:48.764Z,20.27
2023-02-27T07:42:16.996Z,18.30
2023-02-27T07:44:48.089Z,24.50
2023-02-27T07:47:17.977Z,23.83
2023-02-27T07:49:46.304Z,18.17
2023-02-27T07:52:14.140Z,18.20
2023-02-27T07:54:42.504Z,23.95
2023-02-27T07:57:10.494Z,26.67
2023-02-27T07:59:38.719Z,20.15
2023-02-27T08:02:08.054Z,28.13
2023-02-27T08:04:36.504Z,19.77
2023-02-27T08:07:05.408Z,21.73
2023-02-27T08:09:33.798Z,45.75
2023-02-27T08:12:03.288Z,40.13
2023-02-27T08:14:31.501Z,21.00
2023-02-27T08:17:00.754Z,22.98
2023-02-27T08:19:29.258Z,23.08
2023-02-27T08:21:57.436Z,22.05
2023-02-27T08:24:25.801Z,30.60
2023-02-27T08:26:53.771Z,21.63
2023-02-27T08:29:22.010Z,19.83
2023-02-27T08:31:50.480Z,26.00
2023-02-27T08:34:19.718Z,17.60
2023-02-27T08:36:47.472Z,22.40
2023-02-27T08:39:15.898Z,20.30
2023-02-27T08:41:43.853Z,18.02
2023-02-27T08:44:13.387Z,20.30
2023-02-27T08:46:44.930Z,25.33
2023-02-27T08:49:14.581Z,27.10
2023-02-27T08:51:42.576Z,21.23
2023-02-27T08:54:10.925Z,21.33
2023-02-27T08:56:39.013Z,24.25
2023-02-27T08:59:07.229Z,24.70
2023-02-27T09:01:38.440Z,19.75
2023-02-27T09:04:07.557Z,25.25
2023-02-27T09:06:36.603Z,20.38
2023-02-27T09:09:05.524Z,20.10
2023-02-27T09:11:33.784Z,19.73
2023-02-27T09:14:01.964Z,19.35
2023-02-27T09:16:30.303Z,26.17
2023-02-27T09:18:58.839Z,26.70
2023-02-27T09:21:27.782Z,18.48
2023-02-27T09:24:02.500Z,19.02
2023-02-27T09:26:44.304Z,17.92
2023-02-27T09:29:14.380Z,16.73
2023-02-27T09:31:42.646Z,18.50
2023-02-27T09:34:11.172Z,19.58
2023-02-27T09:36:39.092Z,26.52
2023-02-27T09:39:08.437Z,18.88
2023-02-27T09:41:54.216Z,19.25
2023-02-27T09:44:46.248Z,20.90
2023-02-27T09:47:37.592Z,17.45
2023-02-27T09:50:07.974Z,22.85
2023-02-27T09:52:38.020Z,19.73
2023-02-27T09:55:14.884Z,19.33
2023-02-27T09:58:05.167Z,22.40
2023-02-27T10:00:46.398Z,17.13
2023-02-27T10:03:46.202Z,20.08
2023-02-27T10:06:32.495Z,18.90
2023-02-27T10:09:37.706Z,18.58
2023-02-27T10:12:08.982Z,17.95
2023-02-27T10:14:45.650Z,20.48
2023-02-27T10:17:30.254Z,20.60
2023-02-27T10:20:01.432Z,20.48
2023-02-27T10:22:39.810Z,19.25
2023-02-27T10:25:30.249Z,21.63
2023-02-27T10:28:11.517Z,17.25
2023-02-27T10:30:40.092Z,19.10
2023-02-27T10:33:13.035Z,16.15
2023-02-27T10:35:45.824Z,17.98
2023-02-27T10:38:40.256Z,22.25
2023-02-27T10:41:13.347Z,19.23
2023-02-27T10:43:43.018Z,17.40
2023-02-27T10:46:23.186Z,23.23
2023-02-27T10:48:53.488Z,18.58
2023-02-27T10:51:28.254Z,17.95
2023-02-27T10:54:25.485Z,19.35
2023-02-27T10:56:57.529Z,17.85
2023-02-27T10:59:42.985Z,21.00
2023-02-27T11:02:17.688Z,20.90
2023-02-27T11:04:59.279Z,19.55
2023-02-27T11:07:37.717Z,17.42
2023-02-27T11:10:12.813Z,23.65
2023-02-27T11:12:43.160Z,23.58
2023-02-27T11:15:14.783Z,21.15
2023-02-27T11:17:44.152Z,21.25
2023-02-27T11:20:40.999Z,28.38
2023-02-27T11:23:24.224Z,24.42
2023-02-27T11:26:16.496Z,22.23
2023-02-27T11:28:44.606Z,21.30
2023-02-27T11:31:23.710Z,21.45
2023-02-27T11:33:54.856Z,22.02
2023-02-27T11:36:50.200Z,19.65
2023-02-27T11:39:27.125Z,20.35
2023-02-27T11:42:00.393Z,18.75
2023-02-27T11:44:34.688Z,20.00
2023-02-27T11:47:25.442Z,16.92
2023-02-27T11:50:39.720Z,20.13
2023-02-27T11:53:19.920Z,25.10
2023-02-27T11:55:49.395Z,19.45
2023-02-27T11:58:26.257Z,21.35
2023-02-27T12:01:01.768Z,22.25
2023-02-27T12:03:48.550Z,15.57
2023-02-27T12:06:42.084Z,29.00
2023-02-27T12:09:34.551Z,30.60
2023-02-27T12:12:10.701Z,22.98
2023-02-27T12:14:46.385Z,22.20
2023-02-27T12:17:47.849Z,28.77
2023-02-27T12:20:20.769Z,33.95
2023-02-27T12:22:52.324Z,23.98
2023-02-27T12:25:31.412Z,30.88
2023-02-27T12:28:23.966Z,22.63
2023-02-27T12:31:14.029Z,25.95
2023-02-27T12:33:46.761Z,24.83
2023-02-27T12:36:15.619Z,22.67
2023-02-27T12:38:44.268Z,19.02
2023-02-27T12:41:36.900Z,17.58
2023-02-27T12:44:42.987Z,21.63
2023-02-27T12:47:48.829Z,24.27
2023-02-27T12:50:22.497Z,23.95
2023-02-27T12:53:23.715Z,19.58
2023-02-27T12:56:02.018Z,20.45
2023-02-27T12:58:46.084Z,25.75
2023-02-27T13:01:32.375Z,25.00
2023-02-27T13:04:18.581Z,24.25
2023-02-27T13:06:53.357Z,27.63
2023-02-27T13:09:52.848Z,24.10
2023-02-27T13:12:37.432Z,21.00
2023-02-27T13:15:06.180Z,27.13
2023-02-27T13:17:49.825Z,22.98
2023-02-27T13:20:44.811Z,22.42
2023-02-27T13:23:44.705Z,30.48
2023-02-27T13:26:34.839Z,27.40
2023-02-27T13:29:04.688Z,22.80
2023-02-27T13:31:37.665Z,22.17
2023-02-27T13:34:39.031Z,27.63
2023-02-27T13:37:09.425Z,26.60
2023-02-27T13:39:40.053Z,28.75
2023-02-27T13:42:28.367Z,29.10
2023-02-27T13:44:57.956Z,31.67
2023-02-27T13:47:40.830Z,29.40
2023-02-27T13:50:17.722Z,29.33
2023-02-27T13:52:47.654Z,26.75
2023-02-27T13:55:29.507Z,28.30
2023-02-27T13:58:06.419Z,35.28
2023-02-27T14:00:38.173Z,32.53
2023-02-27T14:03:20.872Z,24.73
2023-02-27T14:05:51.854Z,37.92
2023-02-27T14:08:24.521Z,46.38
2023-02-27T14:11:12.524Z,34.95
2023-02-27T14:13:50.166Z,30.98
2023-02-27T14:16:44.487Z,28.67
2023-02-27T14:19:22.997Z,26.85
2023-02-27T14:22:10.887Z,29.48
2023-02-27T14:25:18.881Z,28.90
2023-02-27T14:27:58.616Z,29.90
2023-02-27T14:30:42.078Z,24.00
2023-02-27T14:33:39.577Z,25.55
2023-02-27T14:36:25.605Z,31.48
2023-02-27T14:38:59.304Z,25.88
2023-02-27T14:42:10.389Z,28.02
2023-02-27T14:44:43.343Z,39.70
2023-02-27T14:47:30.833Z,25.17
2023-02-27T14:50:00.219Z,26.35
2023-02-27T14:52:31.026Z,33.97
2023-02-27T14:55:31.445Z,23.88
2023-02-27T14:58:23.143Z,25.15
2023-02-27T15:01:09.682Z,33.25
2023-02-27T15:03:47.394Z,29.13
2023-02-27T15:06:25.053Z,32.92
2023-02-27T15:08:57.505Z,23.63
2023-02-27T15:11:28.204Z,43.05
2023-02-27T15:14:02.306Z,26.10
2023-02-27T15:16:36.290Z,26.23
2023-02-27T15:19:19.209Z,27.88
2023-02-27T15:21:54.727Z,23.02
2023-02-27T15:24:49.804Z,23.30
2023-02-27T15:27:25.580Z,21.77
2023-02-27T15:29:57.825Z,22.48
2023-02-27T15:32:30.182Z,22.73
2023-02-27T15:35:01.377Z,32.72
2023-02-27T15:37:33.752Z,41.45
2023-02-27T15:40:06.726Z,31.30
2023-02-27T15:42:37.981Z,26.05
2023-02-27T15:45:11.479Z,30.30
2023-02-27T15:47:42.914Z,29.25
2023-02-27T15:50:41.659Z,37.17
2023-02-27T15:53:34.305Z,30.88
2023-02-27T15:56:09.801Z,23.50
2023-02-27T15:59:01.691Z,24.13
2023-02-27T16:01:33.059Z,23.70
2023-02-27T16:04:21.472Z,30.90
2023-02-27T16:07:18.715Z,27.13
2023-02-27T16:09:59.548Z,26.75
2023-02-27T16:12:47.508Z,23.63
2023-02-27T16:15:41.317Z,27.55
2023-02-27T16:18:10.994Z,36.58
2023-02-27T16:20:55.142Z,25.02
2023-02-27T16:23:34.008Z,30.13
2023-02-27T16:26:09.296Z,25.60
2023-02-27T16:28:51.615Z,27.63
2023-02-27T16:31:36.172Z,25.75
2023-02-27T16:34:14.752Z,29.55
2023-02-27T16:37:06.200Z,24.08
2023-02-27T16:39:35.589Z,27.67
2023-02-27T16:42:03.673Z,28.80
2023-02-27T16:44:33.208Z,26.38
2023-02-27T16:47:02.478Z,24.52
2023-02-27T16:49:33.563Z,20.25
2023-02-27T16:52:03.030Z,24.80
2023-02-27T16:54:31.282Z,22.70
2023-02-27T16:56:59.228Z,22.65
2023-02-27T16:59:33.999Z,25.75
2023-02-27T17:02:06.638Z,25.45
2023-02-27T17:04:36.542Z,23.38
2023-02-27T17:07:07.113Z,24.83
2023-02-27T17:09:35.941Z,26.38
2023-02-27T17:12:04.298Z,23.80
2023-02-27T17:14:32.588Z,23.25
2023-02-27T17:17:00.713Z,27.38
2023-02-27T17:19:28.919Z,20.90
2023-02-27T17:21:56.946Z,24.70
2023-02-27T17:24:25.899Z,24.98
2023-02-27T17:26:53.724Z,20.85
2023-02-27T17:29:22.950Z,24.85
2023-02-27T17:31:51.232Z,19.80
2023-02-27T17:34:19.930Z,22.85
2023-02-27T17:36:49.634Z,25.13
2023-02-27T17:39:18.146Z,21.55
2023-02-27T17:41:47.155Z,22.35
2023-02-27T17:44:15.558Z,22.85
2023-02-27T17:46:43.556Z,18.15
2023-02-27T17:49:12.079Z,21.38
2023-02-27T17:51:40.215Z,25.60
2023-02-27T17:54:08.733Z,20.52
2023-02-27T17:56:37.148Z,22.67
2023-02-27T17:59:08.174Z,29.85
2023-02-27T18:01:37.102Z,22.92
2023-02-27T18:04:07.178Z,19.02
2023-02-27T18:06:35.498Z,22.83
2023-02-27T18:09:05.602Z,18.98
2023-02-27T18:11:35.735Z,23.88
2023-02-27T18:14:07.952Z,23.83
2023-02-27T18:16:39.726Z,22.63
2023-02-27T18:19:11.080Z,22.40
2023-02-27T18:21:43.484Z,22.52
2023-02-27T18:24:17.151Z,21.08
2023-02-27T18:26:46.704Z,18.40
2023-02-27T18:29:19.049Z,20.58
2023-02-27T18:31:57.199Z,27.65
2023-02-27T18:34:28.092Z,23.92
2023-02-27T18:37:00.744Z,24.15
2023-02-27T18:39:31.855Z,25.90
2023-02-27T18:42:02.062Z,26.27
2023-02-27T18:44:31.325Z,25.15
2023-02-27T18:47:01.698Z,22.95
2023-02-27T18:49:34.676Z,17.58
2023-02-27T18:52:06.670Z,19.58
2023-02-27T18:54:37.342Z,20.92
2023-02-27T18:57:07.021Z,19.85
2023-02-27T18:59:37.258Z,23.13
2023-02-27T19:02:05.222Z,25.13
2023-02-27T19:04:34.330Z,24.50
2023-02-27T19:07:05.881Z,16.55
2023-02-27T19:09:34.504Z,18.33
2023-02-27T19:12:02.647Z,24.38
2023-02-27T19:14:31.636Z,20.33
2023-02-27T19:17:00.777Z,18.50
2023-02-27T19:19:29.236Z,17.42
2023-02-27T19:21:57.426Z,17.88
2023-02-27T19:24:27.573Z,21.10
2023-02-27T19:26:55.698Z,19.02
2023-02-27T19:29:24.014Z,16.20
2023-02-27T19:31:52.921Z,12.80
2023-02-27T19:34:21.507Z,14.10
2023-02-27T19:36:49.384Z,13.90
2023-02-27T19:39:17.935Z,15.15
2023-02-27T19:41:46.253Z,16.10
2023-02-27T19:44:15.077Z,15.73
2023-02-27T19:46:44.630Z,12.60
2023-02-27T19:49:12.855Z,17.58
2023-02-27T19:51:41.751Z,14.85
2023-02-27T19:54:15.757Z,14.18
2023-02-27T19:56:43.667Z,17.52
2023-02-27T19:59:12.932Z,16.13
2023-02-27T20:01:41.837Z,19.80
2023-02-27T20:04:11.757Z,15.13
2023-02-27T20:06:42.863Z,13.88
2023-02-27T20:09:14.785Z,15.35
2023-02-27T20:11:47.991Z,15.90
2023-02-27T20:14:17.372Z,12.27
2023-02-27T20:16:47.157Z,14.82
2023-02-27T20:19:18.236Z,15.52
2023-02-27T20:21:47.869Z,14.48
2023-02-27T20:24:19.140Z,16.58
2023-02-27T20:26:49.713Z,15.57
2023-02-27T20:29:21.704Z,21.80
2023-02-27T20:31:52.173Z,20.80
2023-02-27T20:34:23.396Z,21.65
2023-02-27T20:36:52.910Z,22.70
2023-02-27T20:39:39.777Z,17.20
2023-02-27T20:42:08.503Z,21.27
2023-02-27T20:44:36.961Z,21.42
2023-02-27T20:47:04.944Z,15.48
2023-02-27T20:49:33.378Z,14.98
2023-02-27T20:52:01.565Z,15.50
2023-02-27T20:54:29.874Z,16.08
2023-02-27T20:56:57.959Z,20.83
2023-02-27T20:59:26.565Z,21.15
2023-02-27T21:01:55.327Z,18.35
2023-02-27T21:04:42.851Z,15.63
2023-02-27T21:07:15.816Z,15.30
2023-02-27T21:09:44.333Z,14.48
2023-02-27T21:12:12.830Z,14.00
2023-02-27T21:14:44.282Z,12.38
2023-02-27T21:17:14.041Z,12.95
2023-02-27T21:19:42.515Z,16.55
2023-02-27T21:22:11.517Z,16.48
2023-02-27T21:24:39.784Z,13.43
2023-02-27T21:27:07.959Z,15.60
2023-02-27T21:29:36.664Z,13.45
2023-02-27T21:32:05.439Z,12.98
2023-02-27T21:34:33.646Z,13.23
2023-02-27T21:37:03.309Z,13.80
2023-02-27T21:39:32.694Z,14.50
2023-02-27T21:42:00.778Z,19.00
2023-02-27T21:44:32.256Z,16.15
2023-02-27T21:47:10.450Z,14.93
2023-02-27T21:49:39.531Z,16.20
2023-02-27T21:52:07.569Z,18.30
2023-02-27T21:54:36.016Z,14.07
2023-02-27T21:57:05.557Z,17.42
2023-02-27T21:59:34.600Z,17.55
2023-02-27T22:02:03.450Z,17.25
2023-02-27T22:04:31.902Z,14.60
2023-02-27T22:06:59.691Z,14.20
2023-02-27T22:09:28.193Z,19.30
2023-02-27T22:11:56.150Z,15.30
2023-02-27T22:14:27.119Z,18.55
2023-02-27T22:16:55.297Z,12.93
2023-02-27T22:19:25.740Z,12.02
2023-02-27T22:21:54.757Z,16.00
2023-02-27T22:24:22.949Z,15.27
2023-02-27T22:26:50.918Z,15.15
2023-02-27T22:29:19.153Z,16.83
2023-02-27T22:31:47.285Z,16.52
2023-02-27T22:34:18.847Z,11.82
2023-02-27T22:36:49.102Z,13.68
2023-02-27T22:39:17.516Z,11.50
2023-02-27T22:41:46.393Z,13.15
2023-02-27T22:44:16.809Z,19.60
2023-02-27T22:46:48.152Z,11.45
2023-02-27T22:49:19.610Z,14.93
2023-02-27T22:51:50.973Z,11.95
2023-02-27T22:54:22.321Z,13.38
2023-02-27T22:56:56.376Z,13.45
2023-02-27T22:59:27.184Z,10.90
2023-02-27T23:01:55.287Z,12.05
2023-02-27T23:04:23.883Z,13.95
2023-02-27T23:06:54.564Z,16.23
2023-02-27T23:09:26.454Z,12.65
2023-02-27T23:11:55.070Z,13.70
2023-02-27T23:14:23.362Z,12.95
2023-02-27T23:16:51.814Z,13.68
2023-02-27T23:19:22.105Z,14.65
2023-02-27T23:21:50.582Z,9.65
2023-02-27T23:24:19.515Z,15.25
2023-02-27T23:26:50.390Z,13.40
2023-02-27T23:29:19.560Z,12.65
2023-02-27T23:31:48.358Z,11.52
2023-02-27T23:34:16.966Z,12.23
2023-02-27T23:36:44.965Z,13.20
2023-02-27T23:39:13.288Z,12.68
2023-02-27T23:41:41.422Z,14.45
2023-02-27T23:44:10.282Z,13.77
2023-02-27T23:46:38.385Z,12.15
2023-02-27T23:49:07.490Z,13.75
2023-02-27T23:51:35.901Z,13.02
2023-02-27T23:54:07.579Z,11.10
2023-02-27T23:56:35.800Z,11.60
2023-02-27T23:59:06.394Z,13.07
